sensor_id;sensor_type;location;lat;lon;timestamp;P1;durP1;ratioP1;P2;durP2;ratioP2
18138;SDS011;9195;53.176;9.486;2022-11-15T00:00:24;5.90;;;5.70;;
18138;SDS011;9195;53.176;9.486;2022-11-15T00:02:51;6.20;;;6.00;;
18138;SDS011;9195;53.176;9.486;2022-11-15T00:05:17;6.17;;;5.97;;
18138;SDS011;9195;53.176;9.486;2022-11-15T00:07:43;6.23;;;6.03;;
18138;SDS011;9195;53.176;9.486;2022-11-15T00:10:08;6.17;;;5.97;;
18138;SDS011;9195;53.176;9.486;2022-11-15T00:12:34;6.50;;;6.30;;
18138;SDS011;9195;53.176;9.486;2022-11-15T00:15:00;5.97;;;5.77;;
18138;SDS011;9195;53.176;9.486;2022-11-15T00:17:25;6.30;;;6.10;;
18138;SDS011;9195;53.176;9.486;2022-11-15T00:19:51;5.93;;;5.73;;
18138;SDS011;9195;53.176;9.486;2022-11-15T00:22:16;6.00;;;5.80;;
18138;SDS011;9195;53.176;9.486;2022-11-15T00:24:42;5.90;;;5.70;;
18138;SDS011;9195;53.176;9.486;2022-11-15T00:27:08;5.70;;;5.50;;
18138;SDS011;9195;53.176;9.486;2022-11-15T00:29:33;5.83;;;5.63;;
18138;SDS011;9195;53.176;9.486;2022-11-15T00:31:59;5.40;;;5.20;;
18138;SDS011;9195;53.176;9.486;2022-11-15T00:34:25;5.77;;;5.57;;
18138;SDS011;9195;53.176;9.486;2022-11-15T00:36:50;5.27;;;5.07;;
18138;SDS011;9195;53.176;9.486;2022-11-15T00:39:16;5.40;;;5.20;;
18138;SDS011;9195;53.176;9.486;2022-11-15T00:41:41;5.90;;;5.70;;
18138;SDS011;9195;53.176;9.486;2022-11-15T00:44:07;5.90;;;5.70;;
18138;SDS011;9195;53.176;9.486;2022-11-15T00:46:33;5.83;;;5.63;;
18138;SDS011;9195;53.176;9.486;2022-11-15T00:48:58;5.40;;;5.20;;
18138;SDS011;9195;53.176;9.486;2022-11-15T00:51:24;5.50;;;5.30;;
18138;SDS011;9195;53.176;9.486;2022-11-15T00:53:49;5.27;;;5.07;;
18138;SDS011;9195;53.176;9.486;2022-11-15T00:56:15;5.63;;;5.43;;
18138;SDS011;9195;53.176;9.486;2022-11-15T00:58:40;5.20;;;5.00;;
18138;SDS011;9195;53.176;9.486;2022-11-15T01:01:10;4.80;;;4.60;;
18138;SDS011;9195;53.176;9.486;2022-11-15T01:03:38;5.10;;;4.90;;
18138;SDS011;9195;53.176;9.486;2022-11-15T01:06:05;4.87;;;4.67;;
18138;SDS011;9195;53.176;9.486;2022-11-15T01:08:32;5.53;;;5.33;;
18138;SDS011;9195;53.176;9.486;2022-11-15T01:11:05;5.00;;;4.80;;
18138;SDS011;9195;53.176;9.486;2022-11-15T01:13:33;5.50;;;5.30;;
18138;SDS011;9195;53.176;9.486;2022-11-15T01:16:13;5.50;;;5.30;;
18138;SDS011;9195;53.176;9.486;2022-11-15T01:18:41;5.33;;;5.13;;
18138;SDS011;9195;53.176;9.486;2022-11-15T01:21:08;5.53;;;5.33;;
18138;SDS011;9195;53.176;9.486;2022-11-15T01:23:36;5.70;;;5.50;;
18138;SDS011;9195;53.176;9.486;2022-11-15T01:26:03;5.30;;;5.10;;
18138;SDS011;9195;53.176;9.486;2022-11-15T01:28:35;5.33;;;5.13;;
18138;SDS011;9195;53.176;9.486;2022-11-15T01:31:03;5.10;;;4.90;;
18138;SDS011;9195;53.176;9.486;2022-11-15T01:33:33;5.23;;;5.03;;
18138;SDS011;9195;53.176;9.486;2022-11-15T01:36:03;5.30;;;5.10;;
18138;SDS011;9195;53.176;9.486;2022-11-15T01:38:39;5.40;;;5.20;;
18138;SDS011;9195;53.176;9.486;2022-11-15T01:41:05;5.23;;;5.03;;
18138;SDS011;9195;53.176;9.486;2022-11-15T01:43:32;5.00;;;4.80;;
18138;SDS011;9195;53.176;9.486;2022-11-15T01:46:15;4.90;;;4.70;;
18138;SDS011;9195;53.176;9.486;2022-11-15T01:48:52;5.77;;;5.57;;
18138;SDS011;9195;53.176;9.486;2022-11-15T01:51:20;5.20;;;5.00;;
18138;SDS011;9195;53.176;9.486;2022-11-15T01:53:49;5.67;;;5.47;;
18138;SDS011;9195;53.176;9.486;2022-11-15T01:56:20;6.10;;;5.90;;
18138;SDS011;9195;53.176;9.486;2022-11-15T01:58:50;5.50;;;5.30;;
18138;SDS011;9195;53.176;9.486;2022-11-15T02:01:17;5.50;;;5.30;;
18138;SDS011;9195;53.176;9.486;2022-11-15T02:03:46;5.43;;;5.23;;
18138;SDS011;9195;53.176;9.486;2022-11-15T02:06:17;5.87;;;5.67;;
18138;SDS011;9195;53.176;9.486;2022-11-15T02:08:44;5.30;;;5.10;;
18138;SDS011;9195;53.176;9.486;2022-11-15T02:11:10;5.20;;;5.00;;
18138;SDS011;9195;53.176;9.486;2022-11-15T02:13:35;5.27;;;5.07;;
18138;SDS011;9195;53.176;9.486;2022-11-15T02:18:52;5.07;;;4.87;;
18138;SDS011;9195;53.176;9.486;2022-11-15T02:21:41;5.30;;;5.10;;
18138;SDS011;9195;53.176;9.486;2022-11-15T02:36:31;5.47;;;5.27;;
18138;SDS011;9195;53.176;9.486;2022-11-15T02:38:38;5.00;;;4.80;;
18138;SDS011;9195;53.176;9.486;2022-11-15T02:41:16;5.40;;;5.20;;
18138;SDS011;9195;53.176;9.486;2022-11-15T02:43:50;5.43;;;5.23;;
18138;SDS011;9195;53.176;9.486;2022-11-15T02:46:38;5.40;;;5.20;;
18138;SDS011;9195;53.176;9.486;2022-11-15T02:49:25;5.53;;;5.33;;
18138;SDS011;9195;53.176;9.486;2022-11-15T02:51:54;5.70;;;5.50;;
18138;SDS011;9195;53.176;9.486;2022-11-15T02:54:28;5.03;;;4.83;;
18138;SDS011;9195;53.176;9.486;2022-11-15T02:56:58;5.13;;;4.93;;
18138;SDS011;9195;53.176;9.486;2022-11-15T03:05:34;5.90;;;5.70;;
18138;SDS011;9195;53.176;9.486;2022-11-15T03:08:18;5.90;;;5.70;;
18138;SDS011;9195;53.176;9.486;2022-11-15T03:13:27;6.00;;;5.80;;
18138;SDS011;9195;53.176;9.486;2022-11-15T03:18:43;6.07;;;5.87;;
18138;SDS011;9195;53.176;9.486;2022-11-15T03:21:14;6.00;;;5.80;;
18138;SDS011;9195;53.176;9.486;2022-11-15T03:23:43;5.87;;;5.67;;
18138;SDS011;9195;53.176;9.486;2022-11-15T03:26:12;6.10;;;5.90;;
18138;SDS011;9195;53.176;9.486;2022-11-15T03:28:42;6.17;;;5.97;;
18138;SDS011;9195;53.176;9.486;2022-11-15T03:31:14;5.80;;;5.60;;
18138;SDS011;9195;53.176;9.486;2022-11-15T03:34:02;5.40;;;5.20;;
18138;SDS011;9195;53.176;9.486;2022-11-15T03:36:30;6.00;;;5.80;;
18138;SDS011;9195;53.176;9.486;2022-11-15T03:39:00;5.00;;;4.80;;
18138;SDS011;9195;53.176;9.486;2022-11-15T03:42:04;5.13;;;4.93;;
18138;SDS011;9195;53.176;9.486;2022-11-15T03:44:33;4.73;;;4.53;;
18138;SDS011;9195;53.176;9.486;2022-11-15T03:47:21;4.80;;;4.60;;
18138;SDS011;9195;53.176;9.486;2022-11-15T03:50:02;4.83;;;4.63;;
18138;SDS011;9195;53.176;9.486;2022-11-15T03:52:32;4.70;;;4.50;;
18138;SDS011;9195;53.176;9.486;2022-11-15T03:54:59;5.10;;;4.90;;
18138;SDS011;9195;53.176;9.486;2022-11-15T03:57:27;5.23;;;5.03;;
18138;SDS011;9195;53.176;9.486;2022-11-15T03:59:53;5.20;;;5.00;;
18138;SDS011;9195;53.176;9.486;2022-11-15T04:02:18;5.67;;;5.47;;
18138;SDS011;9195;53.176;9.486;2022-11-15T04:04:44;5.83;;;5.63;;
18138;SDS011;9195;53.176;9.486;2022-11-15T04:07:10;6.00;;;5.80;;
18138;SDS011;9195;53.176;9.486;2022-11-15T04:09:36;5.93;;;5.73;;
18138;SDS011;9195;53.176;9.486;2022-11-15T04:12:21;5.80;;;5.60;;
18138;SDS011;9195;53.176;9.486;2022-11-15T04:14:55;6.07;;;5.87;;
18138;SDS011;9195;53.176;9.486;2022-11-15T04:17:43;5.93;;;5.73;;
18138;SDS011;9195;53.176;9.486;2022-11-15T04:22:58;5.47;;;5.27;;
18138;SDS011;9195;53.176;9.486;2022-11-15T04:25:44;6.17;;;5.97;;
18138;SDS011;9195;53.176;9.486;2022-11-15T04:28:11;5.93;;;5.73;;
18138;SDS011;9195;53.176;9.486;2022-11-15T04:30:37;6.33;;;6.13;;
18138;SDS011;9195;53.176;9.486;2022-11-15T04:33:03;5.97;;;5.77;;
18138;SDS011;9195;53.176;9.486;2022-11-15T04:35:29;5.80;;;5.60;;
18138;SDS011;9195;53.176;9.486;2022-11-15T04:37:55;5.70;;;5.50;;
18138;SDS011;9195;53.176;9.486;2022-11-15T04:40:21;5.90;;;5.70;;
18138;SDS011;9195;53.176;9.486;2022-11-15T04:42:46;5.43;;;5.23;;
18138;SDS011;9195;53.176;9.486;2022-11-15T04:45:12;6.47;;;6.27;;
18138;SDS011;9195;53.176;9.486;2022-11-15T04:47:38;6.00;;;5.80;;
18138;SDS011;9195;53.176;9.486;2022-11-15T04:50:04;6.90;;;6.60;;
18138;SDS011;9195;53.176;9.486;2022-11-15T04:52:30;7.07;;;6.77;;
18138;SDS011;9195;53.176;9.486;2022-11-15T04:54:55;7.33;;;7.03;;
18138;SDS011;9195;53.176;9.486;2022-11-15T04:57:21;7.50;;;7.20;;
18138;SDS011;9195;53.176;9.486;2022-11-15T04:59:46;7.40;;;7.10;;
18138;SDS011;9195;53.176;9.486;2022-11-15T05:02:12;7.23;;;6.93;;
18138;SDS011;9195;53.176;9.486;2022-11-15T05:04:37;7.23;;;6.93;;
18138;SDS011;9195;53.176;9.486;2022-11-15T05:07:03;7.10;;;6.80;;
18138;SDS011;9195;53.176;9.486;2022-11-15T05:09:29;7.30;;;7.00;;
18138;SDS011;9195;53.176;9.486;2022-11-15T05:11:55;7.00;;;6.70;;
18138;SDS011;9195;53.176;9.486;2022-11-15T05:14:20;6.80;;;6.50;;
18138;SDS011;9195;53.176;9.486;2022-11-15T05:16:46;7.00;;;6.70;;
18138;SDS011;9195;53.176;9.486;2022-11-15T05:19:12;6.60;;;6.37;;
18138;SDS011;9195;53.176;9.486;2022-11-15T05:21:38;7.30;;;7.00;;
18138;SDS011;9195;53.176;9.486;2022-11-15T05:24:04;7.07;;;6.77;;
18138;SDS011;9195;53.176;9.486;2022-11-15T05:26:30;6.80;;;6.50;;
18138;SDS011;9195;53.176;9.486;2022-11-15T05:28:56;7.13;;;6.83;;
18138;SDS011;9195;53.176;9.486;2022-11-15T05:31:23;6.83;;;6.53;;
18138;SDS011;9195;53.176;9.486;2022-11-15T05:33:50;6.87;;;6.57;;
18138;SDS011;9195;53.176;9.486;2022-11-15T05:36:38;7.30;;;7.00;;
18138;SDS011;9195;53.176;9.486;2022-11-15T05:39:07;7.23;;;6.93;;
18138;SDS011;9195;53.176;9.486;2022-11-15T05:41:35;7.00;;;6.70;;
18138;SDS011;9195;53.176;9.486;2022-11-15T05:44:05;7.30;;;7.00;;
18138;SDS011;9195;53.176;9.486;2022-11-15T05:46:34;5.67;;;5.47;;
18138;SDS011;9195;53.176;9.486;2022-11-15T05:49:02;7.20;;;6.90;;
18138;SDS011;9195;53.176;9.486;2022-11-15T05:51:30;7.40;;;7.10;;
18138;SDS011;9195;53.176;9.486;2022-11-15T05:53:56;7.03;;;6.73;;
18138;SDS011;9195;53.176;9.486;2022-11-15T05:56:23;5.60;;;5.40;;
18138;SDS011;9195;53.176;9.486;2022-11-15T05:58:51;8.27;;;7.97;;
18138;SDS011;9195;53.176;9.486;2022-11-15T06:01:21;7.47;;;7.17;;
18138;SDS011;9195;53.176;9.486;2022-11-15T06:03:50;8.07;;;7.77;;
18138;SDS011;9195;53.176;9.486;2022-11-15T06:06:16;7.97;;;7.67;;
18138;SDS011;9195;53.176;9.486;2022-11-15T06:08:42;8.20;;;7.90;;
18138;SDS011;9195;53.176;9.486;2022-11-15T06:11:07;7.83;;;7.53;;
18138;SDS011;9195;53.176;9.486;2022-11-15T06:13:33;8.30;;;8.00;;
18138;SDS011;9195;53.176;9.486;2022-11-15T06:15:59;8.20;;;7.90;;
18138;SDS011;9195;53.176;9.486;2022-11-15T06:18:25;8.03;;;7.73;;
18138;SDS011;9195;53.176;9.486;2022-11-15T06:20:51;8.27;;;7.97;;
18138;SDS011;9195;53.176;9.486;2022-11-15T06:23:16;9.10;;;8.70;;
18138;SDS011;9195;53.176;9.486;2022-11-15T06:25:42;8.80;;;8.40;;
18138;SDS011;9195;53.176;9.486;2022-11-15T06:28:08;8.30;;;8.00;;
18138;SDS011;9195;53.176;9.486;2022-11-15T06:30:33;8.83;;;8.47;;
18138;SDS011;9195;53.176;9.486;2022-11-15T06:33:00;8.50;;;8.20;;
18138;SDS011;9195;53.176;9.486;2022-11-15T06:35:27;8.43;;;8.13;;
18138;SDS011;9195;53.176;9.486;2022-11-15T06:37:53;7.10;;;6.80;;
18138;SDS011;9195;53.176;9.486;2022-11-15T06:40:18;6.87;;;6.57;;
18138;SDS011;9195;53.176;9.486;2022-11-15T06:42:44;6.80;;;6.50;;
18138;SDS011;9195;53.176;9.486;2022-11-15T06:45:10;6.80;;;6.50;;
18138;SDS011;9195;53.176;9.486;2022-11-15T06:47:35;8.13;;;7.83;;
18138;SDS011;9195;53.176;9.486;2022-11-15T06:50:12;8.03;;;7.73;;
18138;SDS011;9195;53.176;9.486;2022-11-15T06:52:38;6.97;;;6.67;;
18138;SDS011;9195;53.176;9.486;2022-11-15T06:55:04;6.83;;;6.53;;
18138;SDS011;9195;53.176;9.486;2022-11-15T06:57:30;7.07;;;6.77;;
18138;SDS011;9195;53.176;9.486;2022-11-15T06:59:57;8.63;;;8.33;;
18138;SDS011;9195;53.176;9.486;2022-11-15T07:02:22;8.70;;;8.40;;
18138;SDS011;9195;53.176;9.486;2022-11-15T07:04:48;7.73;;;7.43;;
18138;SDS011;9195;53.176;9.486;2022-11-15T07:07:14;8.83;;;8.47;;
18138;SDS011;9195;53.176;9.486;2022-11-15T07:09:40;7.90;;;7.60;;
18138;SDS011;9195;53.176;9.486;2022-11-15T07:12:05;8.50;;;8.20;;
18138;SDS011;9195;53.176;9.486;2022-11-15T07:14:31;8.30;;;8.00;;
18138;SDS011;9195;53.176;9.486;2022-11-15T07:16:56;7.37;;;7.07;;
18138;SDS011;9195;53.176;9.486;2022-11-15T07:19:22;7.40;;;7.10;;
18138;SDS011;9195;53.176;9.486;2022-11-15T07:21:48;7.17;;;6.87;;
18138;SDS011;9195;53.176;9.486;2022-11-15T07:24:13;7.40;;;7.10;;
18138;SDS011;9195;53.176;9.486;2022-11-15T07:26:39;7.90;;;7.60;;
18138;SDS011;9195;53.176;9.486;2022-11-15T07:29:05;7.40;;;7.10;;
18138;SDS011;9195;53.176;9.486;2022-11-15T07:31:30;9.00;;;8.60;;
18138;SDS011;9195;53.176;9.486;2022-11-15T07:33:56;8.90;;;8.50;;
18138;SDS011;9195;53.176;9.486;2022-11-15T07:36:22;9.27;;;8.87;;
18138;SDS011;9195;53.176;9.486;2022-11-15T07:38:47;9.23;;;8.83;;
18138;SDS011;9195;53.176;9.486;2022-11-15T07:41:13;9.57;;;9.17;;
18138;SDS011;9195;53.176;9.486;2022-11-15T07:43:38;9.80;;;9.40;;
18138;SDS011;9195;53.176;9.486;2022-11-15T07:46:05;9.27;;;8.87;;
18138;SDS011;9195;53.176;9.486;2022-11-15T07:48:34;9.50;;;9.10;;
18138;SDS011;9195;53.176;9.486;2022-11-15T07:51:00;9.10;;;8.70;;
18138;SDS011;9195;53.176;9.486;2022-11-15T07:53:26;9.50;;;9.10;;
18138;SDS011;9195;53.176;9.486;2022-11-15T07:55:51;9.90;;;9.50;;
18138;SDS011;9195;53.176;9.486;2022-11-15T07:58:18;9.57;;;9.17;;
18138;SDS011;9195;53.176;9.486;2022-11-15T08:00:44;9.40;;;9.00;;
18138;SDS011;9195;53.176;9.486;2022-11-15T08:03:11;9.60;;;9.20;;
18138;SDS011;9195;53.176;9.486;2022-11-15T08:05:40;9.40;;;9.00;;
18138;SDS011;9195;53.176;9.486;2022-11-15T08:08:06;9.80;;;9.40;;
18138;SDS011;9195;53.176;9.486;2022-11-15T08:10:33;9.20;;;8.80;;
18138;SDS011;9195;53.176;9.486;2022-11-15T08:13:00;9.70;;;9.30;;
18138;SDS011;9195;53.176;9.486;2022-11-15T08:15:27;9.93;;;9.53;;
18138;SDS011;9195;53.176;9.486;2022-11-15T08:17:54;9.60;;;9.20;;
18138;SDS011;9195;53.176;9.486;2022-11-15T08:20:24;10.00;;;9.60;;
18138;SDS011;9195;53.176;9.486;2022-11-15T08:22:51;10.60;;;10.20;;
18138;SDS011;9195;53.176;9.486;2022-11-15T08:25:17;10.87;;;10.40;;
18138;SDS011;9195;53.176;9.486;2022-11-15T08:27:43;11.27;;;10.77;;
18138;SDS011;9195;53.176;9.486;2022-11-15T08:30:09;10.77;;;10.37;;
18138;SDS011;9195;53.176;9.486;2022-11-15T08:32:36;11.27;;;10.77;;
18138;SDS011;9195;53.176;9.486;2022-11-15T08:35:01;11.43;;;10.93;;
18138;SDS011;9195;53.176;9.486;2022-11-15T08:37:27;11.33;;;10.83;;
18138;SDS011;9195;53.176;9.486;2022-11-15T08:39:53;12.50;;;12.00;;
18138;SDS011;9195;53.176;9.486;2022-11-15T08:42:19;12.10;;;11.60;;
18138;SDS011;9195;53.176;9.486;2022-11-15T08:44:44;12.23;;;11.73;;
18138;SDS011;9195;53.176;9.486;2022-11-15T08:47:13;12.30;;;11.80;;
18138;SDS011;9195;53.176;9.486;2022-11-15T08:49:38;13.03;;;12.43;;
18138;SDS011;9195;53.176;9.486;2022-11-15T08:52:04;12.60;;;12.07;;
18138;SDS011;9195;53.176;9.486;2022-11-15T08:54:30;13.00;;;12.40;;
18138;SDS011;9195;53.176;9.486;2022-11-15T08:56:56;12.80;;;12.20;;
18138;SDS011;9195;53.176;9.486;2022-11-15T08:59:22;12.40;;;11.90;;
18138;SDS011;9195;53.176;9.486;2022-11-15T09:01:48;12.40;;;11.90;;
18138;SDS011;9195;53.176;9.486;2022-11-15T09:04:13;13.00;;;12.40;;
18138;SDS011;9195;53.176;9.486;2022-11-15T09:06:39;13.37;;;12.77;;
18138;SDS011;9195;53.176;9.486;2022-11-15T09:09:05;12.80;;;12.20;;
18138;SDS011;9195;53.176;9.486;2022-11-15T09:11:30;13.37;;;12.77;;
18138;SDS011;9195;53.176;9.486;2022-11-15T09:13:56;12.87;;;12.27;;
18138;SDS011;9195;53.176;9.486;2022-11-15T09:16:22;13.10;;;12.50;;
18138;SDS011;9195;53.176;9.486;2022-11-15T09:18:48;13.30;;;12.70;;
18138;SDS011;9195;53.176;9.486;2022-11-15T09:21:13;12.97;;;12.37;;
18138;SDS011;9195;53.176;9.486;2022-11-15T09:23:39;13.27;;;12.67;;
18138;SDS011;9195;53.176;9.486;2022-11-15T09:26:05;13.40;;;12.80;;
18138;SDS011;9195;53.176;9.486;2022-11-15T09:28:32;13.33;;;12.73;;
18138;SDS011;9195;53.176;9.486;2022-11-15T09:30:59;13.70;;;13.10;;
18138;SDS011;9195;53.176;9.486;2022-11-15T09:33:26;13.90;;;13.30;;
18138;SDS011;9195;53.176;9.486;2022-11-15T09:35:52;13.13;;;12.53;;
18138;SDS011;9195;53.176;9.486;2022-11-15T09:38:18;13.43;;;12.83;;
18138;SDS011;9195;53.176;9.486;2022-11-15T09:40:43;13.40;;;12.80;;
18138;SDS011;9195;53.176;9.486;2022-11-15T09:50:59;13.57;;;12.97;;
18138;SDS011;9195;53.176;9.486;2022-11-15T09:56:01;13.57;;;12.97;;
18138;SDS011;9195;53.176;9.486;2022-11-15T09:58:33;13.37;;;12.77;;
18138;SDS011;9195;53.176;9.486;2022-11-15T10:01:06;13.70;;;13.10;;
18138;SDS011;9195;53.176;9.486;2022-11-15T10:03:41;13.50;;;12.90;;
18138;SDS011;9195;53.176;9.486;2022-11-15T10:06:12;13.53;;;12.93;;
18138;SDS011;9195;53.176;9.486;2022-11-15T10:08:55;14.27;;;13.60;;
18138;SDS011;9195;53.176;9.486;2022-11-15T10:11:31;13.43;;;12.83;;
18138;SDS011;9195;53.176;9.486;2022-11-15T10:14:01;14.00;;;13.40;;
18138;SDS011;9195;53.176;9.486;2022-11-15T10:19:34;13.33;;;12.73;;
18138;SDS011;9195;53.176;9.486;2022-11-15T10:27:38;13.30;;;12.70;;
18138;SDS011;9195;53.176;9.486;2022-11-15T10:30:16;13.20;;;12.60;;
18138;SDS011;9195;53.176;9.486;2022-11-15T10:32:44;13.10;;;12.50;;
18138;SDS011;9195;53.176;9.486;2022-11-15T10:35:22;13.40;;;12.80;;
18138;SDS011;9195;53.176;9.486;2022-11-15T10:38:04;13.50;;;12.90;;
18138;SDS011;9195;53.176;9.486;2022-11-15T10:40:31;13.20;;;12.60;;
18138;SDS011;9195;53.176;9.486;2022-11-15T10:43:30;13.30;;;12.70;;
18138;SDS011;9195;53.176;9.486;2022-11-15T10:45:51;13.67;;;13.07;;
18138;SDS011;9195;53.176;9.486;2022-11-15T10:50:47;13.80;;;13.20;;
18138;SDS011;9195;53.176;9.486;2022-11-15T10:55:54;15.13;;;14.43;;
18138;SDS011;9195;53.176;9.486;2022-11-15T10:58:28;15.40;;;14.70;;
18138;SDS011;9195;53.176;9.486;2022-11-15T11:01:10;15.43;;;14.73;;
18138;SDS011;9195;53.176;9.486;2022-11-15T11:06:25;16.27;;;15.47;;
18138;SDS011;9195;53.176;9.486;2022-11-15T11:08:58;16.20;;;15.40;;
18138;SDS011;9195;53.176;9.486;2022-11-15T11:11:45;16.15;;;15.43;;
18138;SDS011;9195;53.176;9.486;2022-11-15T11:14:17;15.95;;;15.25;;
18138;SDS011;9195;53.176;9.486;2022-11-15T11:19:53;16.67;;;15.88;;
18138;SDS011;9195;53.176;9.486;2022-11-15T11:22:36;16.60;;;15.80;;
18138;SDS011;9195;53.176;9.486;2022-11-15T11:33:34;16.80;;;16.00;;
18138;SDS011;9195;53.176;9.486;2022-11-15T11:44:27;17.45;;;16.65;;
18138;SDS011;9195;53.176;9.486;2022-11-15T11:47:11;17.50;;;16.70;;
18138;SDS011;9195;53.176;9.486;2022-11-15T11:54:49;16.80;;;16.00;;
18138;SDS011;9195;53.176;9.486;2022-11-15T12:00:24;16.30;;;15.50;;
18138;SDS011;9195;53.176;9.486;2022-11-15T12:03:11;15.80;;;15.10;;
18138;SDS011;9195;53.176;9.486;2022-11-15T12:06:02;15.70;;;15.00;;
18138;SDS011;9195;53.176;9.486;2022-11-15T12:14:45;15.87;;;15.17;;
18138;SDS011;9195;53.176;9.486;2022-11-15T12:17:39;16.10;;;15.38;;
18138;SDS011;9195;53.176;9.486;2022-11-15T12:20:16;16.30;;;15.50;;
18138;SDS011;9195;53.176;9.486;2022-11-15T12:22:59;16.23;;;15.43;;
18138;SDS011;9195;53.176;9.486;2022-11-15T12:25:47;15.88;;;15.18;;
18138;SDS011;9195;53.176;9.486;2022-11-15T12:28:40;16.45;;;15.65;;
18138;SDS011;9195;53.176;9.486;2022-11-15T12:33:46;15.60;;;14.90;;
18138;SDS011;9195;53.176;9.486;2022-11-15T12:41:19;16.35;;;15.55;;
18138;SDS011;9195;53.176;9.486;2022-11-15T12:43:47;16.02;;;15.27;;
18138;SDS011;9195;53.176;9.486;2022-11-15T12:48:55;16.50;;;15.70;;
18138;SDS011;9195;53.176;9.486;2022-11-15T12:52:03;16.70;;;15.90;;
18138;SDS011;9195;53.176;9.486;2022-11-15T13:02:30;15.83;;;15.13;;
18138;SDS011;9195;53.176;9.486;2022-11-15T13:20:16;15.17;;;14.47;;
18138;SDS011;9195;53.176;9.486;2022-11-15T13:28:31;15.53;;;14.83;;
18138;SDS011;9195;53.176;9.486;2022-11-15T13:31:21;15.33;;;14.63;;
18138;SDS011;9195;53.176;9.486;2022-11-15T13:33:48;14.10;;;13.50;;
18138;SDS011;9195;53.176;9.486;2022-11-15T13:36:24;15.20;;;14.50;;
18138;SDS011;9195;53.176;9.486;2022-11-15T13:38:57;14.90;;;14.20;;
18138;SDS011;9195;53.176;9.486;2022-11-15T13:41:34;15.00;;;14.30;;
18138;SDS011;9195;53.176;9.486;2022-11-15T13:44:02;14.43;;;13.83;;
18138;SDS011;9195;53.176;9.486;2022-11-15T13:46:29;14.77;;;14.10;;
18138;SDS011;9195;53.176;9.486;2022-11-15T13:48:59;14.27;;;13.67;;
18138;SDS011;9195;53.176;9.486;2022-11-15T13:56:34;13.93;;;13.33;;
18138;SDS011;9195;53.176;9.486;2022-11-15T13:59:08;14.03;;;13.43;;
18138;SDS011;9195;53.176;9.486;2022-11-15T14:01:42;14.00;;;13.40;;
18138;SDS011;9195;53.176;9.486;2022-11-15T14:04:12;14.30;;;13.70;;
18138;SDS011;9195;53.176;9.486;2022-11-15T14:06:44;14.23;;;13.63;;
18138;SDS011;9195;53.176;9.486;2022-11-15T14:11:58;13.73;;;13.13;;
18138;SDS011;9195;53.176;9.486;2022-11-15T14:14:26;14.27;;;13.67;;
18138;SDS011;9195;53.176;9.486;2022-11-15T14:16:54;14.63;;;13.97;;
18138;SDS011;9195;53.176;9.486;2022-11-15T14:27:37;13.97;;;13.37;;
18138;SDS011;9195;53.176;9.486;2022-11-15T14:30:04;13.70;;;13.10;;
18138;SDS011;9195;53.176;9.486;2022-11-15T14:32:37;12.60;;;12.10;;
18138;SDS011;9195;53.176;9.486;2022-11-15T14:35:11;13.43;;;12.83;;
18138;SDS011;9195;53.176;9.486;2022-11-15T14:37:45;13.30;;;12.70;;
18138;SDS011;9195;53.176;9.486;2022-11-15T14:40:12;13.40;;;12.80;;
18138;SDS011;9195;53.176;9.486;2022-11-15T14:42:40;13.37;;;12.77;;
18138;SDS011;9195;53.176;9.486;2022-11-15T14:45:17;13.73;;;13.13;;
18138;SDS011;9195;53.176;9.486;2022-11-15T14:47:44;13.30;;;12.70;;
18138;SDS011;9195;53.176;9.486;2022-11-15T14:50:11;12.97;;;12.37;;
18138;SDS011;9195;53.176;9.486;2022-11-15T14:52:38;13.40;;;12.80;;
18138;SDS011;9195;53.176;9.486;2022-11-15T14:55:09;13.67;;;13.07;;
18138;SDS011;9195;53.176;9.486;2022-11-15T14:57:53;13.30;;;12.70;;
18138;SDS011;9195;53.176;9.486;2022-11-15T15:00:20;13.00;;;12.40;;
18138;SDS011;9195;53.176;9.486;2022-11-15T15:02:47;12.80;;;12.20;;
18138;SDS011;9195;53.176;9.486;2022-11-15T15:05:19;13.07;;;12.47;;
18138;SDS011;9195;53.176;9.486;2022-11-15T15:07:49;13.20;;;12.60;;
18138;SDS011;9195;53.176;9.486;2022-11-15T15:10:16;13.30;;;12.70;;
18138;SDS011;9195;53.176;9.486;2022-11-15T15:12:42;12.30;;;11.80;;
18138;SDS011;9195;53.176;9.486;2022-11-15T15:15:12;12.80;;;12.20;;
18138;SDS011;9195;53.176;9.486;2022-11-15T15:17:40;12.43;;;11.93;;
18138;SDS011;9195;53.176;9.486;2022-11-15T15:20:06;12.37;;;11.87;;
18138;SDS011;9195;53.176;9.486;2022-11-15T15:22:33;12.40;;;11.90;;
18138;SDS011;9195;53.176;9.486;2022-11-15T15:24:58;11.70;;;11.20;;
18138;SDS011;9195;53.176;9.486;2022-11-15T15:27:24;11.87;;;11.37;;
18138;SDS011;9195;53.176;9.486;2022-11-15T15:29:49;11.70;;;11.20;;
18138;SDS011;9195;53.176;9.486;2022-11-15T15:32:15;11.30;;;10.80;;
18138;SDS011;9195;53.176;9.486;2022-11-15T15:34:41;11.30;;;10.80;;
18138;SDS011;9195;53.176;9.486;2022-11-15T15:39:54;10.77;;;10.37;;
18138;SDS011;9195;53.176;9.486;2022-11-15T15:42:21;11.00;;;10.50;;
18138;SDS011;9195;53.176;9.486;2022-11-15T15:44:48;10.70;;;10.30;;
18138;SDS011;9195;53.176;9.486;2022-11-15T15:47:15;10.53;;;10.13;;
18138;SDS011;9195;53.176;9.486;2022-11-15T15:49:43;10.10;;;9.70;;
18138;SDS011;9195;53.176;9.486;2022-11-15T15:52:09;10.40;;;10.00;;
18138;SDS011;9195;53.176;9.486;2022-11-15T15:54:34;10.30;;;9.90;;
18138;SDS011;9195;53.176;9.486;2022-11-15T15:57:00;10.10;;;9.70;;
18138;SDS011;9195;53.176;9.486;2022-11-15T15:59:26;10.30;;;9.90;;
18138;SDS011;9195;53.176;9.486;2022-11-15T16:01:52;10.13;;;9.73;;
18138;SDS011;9195;53.176;9.486;2022-11-15T16:04:17;10.20;;;9.80;;
18138;SDS011;9195;53.176;9.486;2022-11-15T16:06:43;10.23;;;9.83;;
18138;SDS011;9195;53.176;9.486;2022-11-15T16:09:13;10.47;;;10.07;;
18138;SDS011;9195;53.176;9.486;2022-11-15T16:11:40;10.33;;;9.93;;
18138;SDS011;9195;53.176;9.486;2022-11-15T16:14:10;11.00;;;10.50;;
18138;SDS011;9195;53.176;9.486;2022-11-15T16:16:36;10.30;;;9.90;;
18138;SDS011;9195;53.176;9.486;2022-11-15T16:19:02;10.37;;;9.97;;
18138;SDS011;9195;53.176;9.486;2022-11-15T16:21:28;10.27;;;9.87;;
18138;SDS011;9195;53.176;9.486;2022-11-15T16:23:54;9.77;;;9.37;;
18138;SDS011;9195;53.176;9.486;2022-11-15T16:26:28;10.00;;;9.60;;
18138;SDS011;9195;53.176;9.486;2022-11-15T16:28:55;9.13;;;8.73;;
18138;SDS011;9195;53.176;9.486;2022-11-15T16:31:20;10.20;;;9.80;;
18138;SDS011;9195;53.176;9.486;2022-11-15T16:33:46;9.80;;;9.40;;
18138;SDS011;9195;53.176;9.486;2022-11-15T16:36:22;9.80;;;9.40;;
18138;SDS011;9195;53.176;9.486;2022-11-15T16:38:49;9.70;;;9.30;;
18138;SDS011;9195;53.176;9.486;2022-11-15T16:41:15;9.40;;;9.00;;
18138;SDS011;9195;53.176;9.486;2022-11-15T16:43:43;9.40;;;9.00;;
18138;SDS011;9195;53.176;9.486;2022-11-15T16:46:17;9.43;;;9.03;;
18138;SDS011;9195;53.176;9.486;2022-11-15T16:48:46;8.97;;;8.57;;
18138;SDS011;9195;53.176;9.486;2022-11-15T16:51:12;8.60;;;8.30;;
18138;SDS011;9195;53.176;9.486;2022-11-15T16:53:38;8.87;;;8.47;;
18138;SDS011;9195;53.176;9.486;2022-11-15T16:56:12;8.70;;;8.40;;
18138;SDS011;9195;53.176;9.486;2022-11-15T16:58:44;8.47;;;8.17;;
18138;SDS011;9195;53.176;9.486;2022-11-15T17:01:15;8.37;;;8.07;;
18138;SDS011;9195;53.176;9.486;2022-11-15T17:03:47;8.20;;;7.90;;
18138;SDS011;9195;53.176;9.486;2022-11-15T17:06:13;8.03;;;7.73;;
18138;SDS011;9195;53.176;9.486;2022-11-15T17:08:39;7.63;;;7.33;;
18138;SDS011;9195;53.176;9.486;2022-11-15T17:11:06;7.73;;;7.43;;
18138;SDS011;9195;53.176;9.486;2022-11-15T17:13:32;7.63;;;7.33;;
18138;SDS011;9195;53.176;9.486;2022-11-15T17:16:07;8.10;;;7.80;;
18138;SDS011;9195;53.176;9.486;2022-11-15T17:18:38;8.20;;;7.90;;
18138;SDS011;9195;53.176;9.486;2022-11-15T17:21:09;8.20;;;7.90;;
18138;SDS011;9195;53.176;9.486;2022-11-15T17:23:40;7.70;;;7.40;;
18138;SDS011;9195;53.176;9.486;2022-11-15T17:26:07;7.67;;;7.37;;
18138;SDS011;9195;53.176;9.486;2022-11-15T17:28:35;7.33;;;7.03;;
18138;SDS011;9195;53.176;9.486;2022-11-15T17:31:04;8.07;;;7.77;;